Time;durP1;ratioP1;P1;durP2;ratioP2;P2;SDS_P1;SDS_P2;PMS_P1;PMS_P2;Temp;Humidity;BMP_temperature;BMP_pressure;BME280_temperature;BME280_humidity;BME280_pressure;Samples;Min_cycle;Max_cycle;Signal;HPM_P1;HPM_P2
2022/07/20 00:01:43;;;;;;;12.48;6.70;;;;;;;24.63;91.53;97686.91;5079468;28;20444;-93
2022/07/20 00:04:09;;;;;;;12.70;6.15;;;;;;;24.71;91.32;97695.94;5080055;28;20020;-93
2022/07/20 00:06:34;;;;;;;13.90;6.30;;;;;;;24.72;91.00;97691.47;5072027;28;20032;-93
2022/07/20 00:11:46;;;;;;;15.15;6.45;;;;;;;24.63;92.66;97689.56;5062299;28;20494;-92
2022/07/20 00:14:12;;;;;;;11.48;6.10;;;;;;;24.54;93.00;97692.00;5063422;28;20055;-92
2022/07/20 00:16:38;;;;;;;13.25;5.82;;;;;;;24.32;95.91;97694.78;5061349;28;20041;-93
2022/07/20 00:19:04;;;;;;;12.25;6.03;;;;;;;24.27;95.72;97691.63;5066798;28;20036;-92
2022/07/20 00:21:33;;;;;;;11.63;5.88;;;;;;;24.43;94.58;97696.56;5063193;28;20024;-93
2022/07/20 00:23:58;;;;;;;14.13;6.00;;;;;;;24.36;95.48;97701.53;5059395;28;20032;-93
2022/07/20 00:26:25;;;;;;;10.65;5.65;;;;;;;24.32;95.50;97694.78;5063929;28;20440;-94
2022/07/20 00:28:56;;;;;;;12.02;6.00;;;;;;;24.28;96.14;97683.50;5059511;28;20033;-92
2022/07/20 00:31:22;;;;;;;12.35;6.43;;;;;;;24.17;97.31;97679.06;5070081;28;20032;-92
2022/07/20 00:33:48;;;;;;;14.13;6.63;;;;;;;24.16;97.36;97679.19;5076664;28;20879;-93
2022/07/20 00:36:15;;;;;;;11.45;5.68;;;;;;;24.16;99.59;97679.19;5064207;28;20036;-92
2022/07/20 00:38:44;;;;;;;12.15;6.38;;;;;;;23.90;100.00;97670.66;5104208;27;20028;-93
2022/07/20 00:41:09;;;;;;;13.57;5.95;;;;;;;24.00;100.00;97679.59;5066748;28;20032;-92
2022/07/20 00:44:11;;;;;;;10.50;5.55;;;;;;;23.90;100.00;97676.84;5068220;28;20046;-93
2022/07/20 00:46:42;;;;;;;11.45;5.50;;;;;;;24.07;100.00;97686.13;4965796;28;20035;-92
2022/07/20 00:49:12;;;;;;;14.60;6.28;;;;;;;23.69;100.00;97692.72;4959953;28;20038;-92
2022/07/20 00:51:40;;;;;;;12.38;6.30;;;;;;;23.71;100.00;97696.06;4960027;28;20038;-93
2022/07/20 00:54:06;;;;;;;13.40;6.20;;;;;;;23.64;100.00;97693.06;4976908;28;20046;-93
2022/07/20 00:56:33;;;;;;;15.50;6.38;;;;;;;23.96;100.00;97694.97;4964797;28;20594;-93
2022/07/20 00:59:00;;;;;;;13.82;6.30;;;;;;;23.69;100.00;97696.22;4978923;28;20060;-93
2022/07/20 01:01:32;;;;;;;13.98;5.97;;;;;;;23.37;100.00;97693.44;4963625;28;20840;-94
2022/07/20 01:03:58;;;;;;;14.27;7.15;;;;;;;23.58;100.00;97695.38;4963679;28;20034;-93
2022/07/20 01:06:24;;;;;;;11.02;5.88;;;;;;;23.88;100.00;97693.91;4967640;28;20034;-93
2022/07/20 01:08:50;;;;;;;11.68;6.35;;;;;;;23.80;100.00;97689.16;4963046;28;20049;-92
2022/07/20 01:11:20;;;;;;;14.80;6.43;;;;;;;23.85;100.00;97695.84;4958334;28;20026;-92
2022/07/20 01:13:48;;;;;;;11.55;6.45;;;;;;;23.70;100.00;97702.38;4966246;28;20847;-93
2022/07/20 01:16:13;;;;;;;11.27;6.10;;;;;;;23.60;100.00;97704.09;4965651;28;20034;-93
2022/07/20 01:18:39;;;;;;;11.38;6.30;;;;;;;23.40;100.00;97698.53;4961945;28;20068;-92
2022/07/20 01:21:11;;;;;;;12.02;5.63;;;;;;;23.11;100.00;97706.91;5037696;28;20067;-93
2022/07/20 01:23:39;;;;;;;10.48;5.63;;;;;;;23.15;100.00;97699.59;5064988;28;20032;-93
2022/07/20 01:26:05;;;;;;;12.63;6.55;;;;;;;23.06;100.00;97714.44;5101074;27;20033;-91
2022/07/20 01:28:31;;;;;;;13.48;6.50;;;;;;;23.03;100.00;97714.63;5095917;27;20396;-93
2022/07/20 01:30:57;;;;;;;12.32;6.25;;;;;;;23.10;100.00;97710.53;5068660;28;20598;-92
2022/07/20 01:33:22;;;;;;;13.85;6.88;;;;;;;22.95;100.00;97714.38;5069582;28;20024;-93
2022/07/20 01:35:48;;;;;;;12.77;6.55;;;;;;;22.87;100.00;97716.78;5065142;28;20024;-92
2022/07/20 01:38:13;;;;;;;11.65;6.40;;;;;;;22.93;100.00;97711.00;5096582;27;20028;-93
2022/07/20 01:40:40;;;;;;;12.50;6.03;;;;;;;23.04;100.00;97718.16;5095518;27;20040;-93
2022/07/20 01:43:06;;;;;;;12.38;6.45;;;;;;;23.09;100.00;97711.53;5069745;28;20051;-93
2022/07/20 01:45:32;;;;;;;11.50;6.13;;;;;;;23.94;100.00;97712.03;5098502;27;20549;-92
2022/07/20 01:47:57;;;;;;;11.75;6.00;;;;;;;23.81;100.00;97715.69;5057377;28;20036;-93
2022/07/20 01:50:23;;;;;;;13.07;6.38;;;;;;;22.92;100.00;97719.94;5068804;28;20061;-92
2022/07/20 01:52:48;;;;;;;13.30;6.40;;;;;;;23.28;100.00;97721.59;5061957;28;20028;-92
2022/07/20 01:55:15;;;;;;;15.23;6.47;;;;;;;22.75;100.00;97719.41;5060050;28;20063;-92
2022/07/20 01:57:41;;;;;;;12.75;6.95;;;;;;;23.26;100.00;97714.72;5061966;28;20399;-92
2022/07/20 02:00:10;;;;;;;12.15;6.45;;;;;;;22.77;100.00;97714.84;5063593;28;20544;-92
2022/07/20 02:02:35;;;;;;;14.13;6.95;;;;;;;22.81;100.00;97708.31;5064501;28;20141;-92
2022/07/20 02:05:01;;;;;;;11.23;6.32;;;;;;;22.83;100.00;97710.88;5061695;28;20441;-92
2022/07/20 02:07:26;;;;;;;12.05;6.65;;;;;;;22.82;100.00;97706.50;5061862;28;20032;-92
2022/07/20 02:09:52;;;;;;;11.88;5.93;;;;;;;22.75;100.00;97703.47;5057824;28;20090;-92
2022/07/20 02:12:19;;;;;;;11.38;5.97;;;;;;;22.73;100.00;97716.03;5063109;28;20492;-93
2022/07/20 02:14:44;;;;;;;13.48;6.63;;;;;;;22.62;100.00;97710.69;5094554;27;20021;-92
2022/07/20 02:17:10;;;;;;;11.48;6.00;;;;;;;22.41;100.00;97711.31;5099118;27;20119;-92
2022/07/20 02:19:35;;;;;;;12.18;6.25;;;;;;;22.31;100.00;97710.25;5063090;28;20040;-92
2022/07/20 02:22:04;;;;;;;12.88;6.30;;;;;;;22.30;100.00;97716.56;5070311;28;20024;-91
2022/07/20 02:24:30;;;;;;;11.30;5.38;;;;;;;22.26;100.00;97707.13;5056865;28;20106;-93
2022/07/20 02:26:55;;;;;;;13.00;6.68;;;;;;;22.32;100.00;97699.53;5067758;28;20742;-94
2022/07/20 02:29:21;;;;;;;13.00;6.43;;;;;;;22.29;100.00;97706.88;5060626;28;20030;-92
2022/07/20 02:31:46;;;;;;;11.57;6.00;;;;;;;22.45;100.00;97706.59;5061046;28;20032;-92
2022/07/20 02:34:15;;;;;;;13.73;6.95;;;;;;;22.43;100.00;97701.41;5063973;28;20024;-92
2022/07/20 02:36:41;;;;;;;15.52;6.60;;;;;;;22.33;100.00;97708.34;5097319;27;20111;-91
2022/07/20 02:39:07;;;;;;;12.77;6.10;;;;;;;22.32;100.00;97702.19;5072072;28;20180;-92
2022/07/20 02:41:34;;;;;;;11.85;6.45;;;;;;;22.39;100.00;97693.78;5066664;28;20077;-92
2022/07/20 02:44:01;;;;;;;12.43;6.63;;;;;;;22.28;100.00;97695.41;5065271;28;20396;-92
2022/07/20 02:46:27;;;;;;;11.63;6.57;;;;;;;22.44;100.00;97702.28;5063463;28;20070;-92
2022/07/20 02:48:52;;;;;;;12.10;6.40;;;;;;;22.35;100.00;97695.81;5062402;28;20647;-92
2022/07/20 02:51:18;;;;;;;11.27;5.95;;;;;;;22.16;100.00;97685.69;5066509;28;20115;-92
2022/07/20 02:53:43;;;;;;;14.70;5.90;;;;;;;22.05;100.00;97681.19;5061791;28;20031;-96
2022/07/20 02:56:09;;;;;;;13.50;6.50;;;;;;;22.10;100.00;97681.69;5095668;28;20041;-93
2022/07/20 02:58:34;;;;;;;12.85;6.80;;;;;;;22.01;100.00;97679.69;5062676;28;20194;-93
2022/07/20 03:01:00;;;;;;;13.95;6.57;;;;;;;21.75;100.00;97685.13;5053801;28;20107;-92
2022/07/20 03:03:25;;;;;;;14.00;6.68;;;;;;;21.79;100.00;97686.56;5065845;28;20115;-92
2022/07/20 03:05:51;;;;;;;14.25;7.03;;;;;;;21.78;100.00;97684.03;5062448;28;20033;-92
2022/07/20 03:08:16;;;;;;;12.60;6.22;;;;;;;21.80;100.00;97677.66;5062750;28;20036;-92
2022/07/20 03:10:42;;;;;;;14.23;6.93;;;;;;;21.88;100.00;97671.78;5070196;28;20052;-92
2022/07/20 03:13:07;;;;;;;11.60;6.50;;;;;;;22.01;100.00;97685.00;5064687;28;20039;-93
2022/07/20 03:15:33;;;;;;;16.02;6.97;;;;;;;22.09;100.00;97687.13;5062515;28;20519;-93
2022/07/20 03:17:59;;;;;;;12.75;6.53;;;;;;;22.11;100.00;97683.38;5066720;28;20036;-92
2022/07/20 03:20:32;;;;;;;13.55;6.63;;;;;;;22.09;100.00;97682.66;5071438;28;20036;-92
2022/07/20 03:23:00;;;;;;;11.93;6.50;;;;;;;22.05;100.00;97677.69;5067407;28;20024;-92
2022/07/20 03:25:27;;;;;;;15.73;6.50;;;;;;;22.05;100.00;97681.19;5068856;28;20024;-92
2022/07/20 03:27:56;;;;;;;13.32;6.97;;;;;;;22.20;100.00;97686.31;5054725;28;20091;-92
2022/07/20 03:30:23;;;;;;;13.48;6.40;;;;;;;22.08;100.00;97685.41;5061243;28;20028;-91
2022/07/20 03:32:48;;;;;;;14.95;6.95;;;;;;;22.21;100.00;97685.34;5063910;28;20104;-90
2022/07/20 03:35:14;;;;;;;15.90;6.95;;;;;;;22.12;100.00;97677.09;5074330;28;20161;-92
2022/07/20 03:37:40;;;;;;;14.52;6.65;;;;;;;22.04;100.00;97673.31;5065163;28;20488;-91
2022/07/20 03:40:09;;;;;;;14.45;7.22;;;;;;;22.14;100.00;97687.59;5065068;28;20025;-92
2022/07/20 03:42:35;;;;;;;12.88;6.80;;;;;;;22.09;100.00;97692.44;5069238;28;20028;-93
2022/07/20 03:45:01;;;;;;;12.27;6.82;;;;;;;22.07;100.00;97700.47;5063911;28;20063;-93
2022/07/20 03:47:26;;;;;;;15.77;7.50;;;;;;;21.98;100.00;97694.03;5067299;28;20461;-92
2022/07/20 03:49:52;;;;;;;12.98;7.07;;;;;;;21.94;100.00;97699.69;5066232;28;20024;-92
2022/07/20 03:52:18;;;;;;;15.05;7.55;;;;;;;21.85;100.00;97693.25;5098189;27;20397;-92
2022/07/20 03:54:44;;;;;;;15.52;8.43;;;;;;;21.84;100.00;97694.22;5071879;28;20864;-92
2022/07/20 03:57:10;;;;;;;15.82;9.32;;;;;;;21.65;100.00;97686.72;5063553;28;20037;-92
2022/07/20 03:59:35;;;;;;;23.42;12.52;;;;;;;21.54;100.00;97681.34;5074892;28;20032;-92
2022/07/20 04:02:01;;;;;;;25.55;15.10;;;;;;;21.39;100.00;97681.44;5051418;28;20036;-90
2022/07/20 04:04:28;;;;;;;33.25;20.42;;;;;;;21.29;100.00;97677.72;5065802;28;20056;-92
2022/07/20 04:06:54;;;;;;;39.30;21.90;;;;;;;21.08;100.00;97683.56;5069254;28;20477;-92
2022/07/20 04:09:43;;;;;;;40.38;24.27;;;;;;;21.12;100.00;97679.75;5065515;28;20135;-92
2022/07/20 04:12:05;;;;;;;47.40;26.63;;;;;;;20.96;100.00;97695.03;5068763;28;20401;-92
2022/07/20 04:14:31;;;;;;;46.53;25.27;;;;;;;20.85;100.00;97702.84;5062906;28;20032;-92
2022/07/20 04:16:56;;;;;;;37.55;22.75;;;;;;;20.59;100.00;97708.09;5088833;27;20057;-91
2022/07/20 04:19:22;;;;;;;33.70;18.70;;;;;;;20.50;100.00;97708.69;5070834;28;20106;-92
2022/07/20 04:21:48;;;;;;;28.17;16.77;;;;;;;20.52;100.00;97705.00;5066022;28;20674;-91
2022/07/20 04:24:13;;;;;;;27.35;16.05;;;;;;;20.43;100.00;97693.22;5098314;27;20116;-93
2022/07/20 04:26:39;;;;;;;20.98;13.70;;;;;;;20.38;100.00;97689.19;5067262;28;20031;-91
2022/07/20 04:29:04;;;;;;;22.65;12.10;;;;;;;20.68;100.00;97691.63;5067185;28;20520;-92
2022/07/20 04:31:30;;;;;;;23.15;13.27;;;;;;;20.42;100.00;97691.50;5064911;28;20031;-93
2022/07/20 04:33:55;;;;;;;24.80;11.75;;;;;;;20.43;100.00;97693.22;5061939;28;20036;-92
2022/07/20 04:36:21;;;;;;;19.60;11.00;;;;;;;20.40;100.00;97704.03;5070578;28;20028;-92
2022/07/20 04:38:47;;;;;;;20.42;11.38;;;;;;;20.29;100.00;97698.56;5070060;28;20048;-93
2022/07/20 04:41:12;;;;;;;18.00;10.50;;;;;;;20.24;100.00;97708.63;5066166;28;20054;-92
2022/07/20 04:43:38;;;;;;;18.13;9.65;;;;;;;20.29;100.00;97717.09;5090006;27;20036;-92
2022/07/20 04:46:03;;;;;;;17.58;9.52;;;;;;;20.13;100.00;97720.75;5071953;28;20083;-92
2022/07/20 04:48:29;;;;;;;17.83;10.30;;;;;;;20.01;100.00;97721.53;5068613;28;20040;-92
2022/07/20 04:50:54;;;;;;;17.42;9.38;;;;;;;19.83;100.00;97720.91;5066036;28;20506;-91
2022/07/20 04:53:20;;;;;;;17.98;9.57;;;;;;;20.02;100.00;97719.75;5070655;28;20028;-92
2022/07/20 04:55:45;;;;;;;16.38;8.50;;;;;;;20.23;100.00;97712.22;5068265;28;20045;-92
2022/07/20 04:58:11;;;;;;;16.35;8.48;;;;;;;20.12;100.00;97716.41;5057106;28;20025;-92
2022/07/20 05:00:37;;;;;;;14.48;8.32;;;;;;;20.15;100.00;97725.09;5071050;28;20073;-92
2022/07/20 05:03:03;;;;;;;17.42;8.07;;;;;;;20.27;100.00;97717.19;5064283;28;20031;-92
2022/07/20 05:05:28;;;;;;;17.13;8.10;;;;;;;20.33;100.00;97718.59;5088257;28;20029;-92
2022/07/20 05:07:54;;;;;;;17.15;8.30;;;;;;;20.32;100.00;97727.50;5057770;28;20029;-91
2022/07/20 05:10:19;;;;;;;17.42;8.27;;;;;;;20.26;100.00;97727.88;5071316;28;20875;-91
2022/07/20 05:12:44;;;;;;;14.48;7.93;;;;;;;20.05;100.00;97732.78;5077395;28;20030;-91
2022/07/20 05:15:10;;;;;;;14.70;7.88;;;;;;;19.94;100.00;97736.97;5061191;28;20036;-92
2022/07/20 05:17:36;;;;;;;17.58;8.23;;;;;;;19.91;100.00;97742.44;5063578;28;20040;-94
2022/07/20 05:20:02;;;;;;;14.95;7.97;;;;;;;19.81;100.00;97728.09;5092206;27;20028;-92
2022/07/20 05:22:28;;;;;;;13.02;7.97;;;;;;;19.94;100.00;97742.28;5091751;27;20268;-91
2022/07/20 05:24:54;;;;;;;15.85;7.95;;;;;;;19.84;100.00;97738.50;5062226;28;20025;-92
2022/07/20 05:27:19;;;;;;;16.05;8.10;;;;;;;19.74;100.00;97738.19;5062683;28;20063;-94
2022/07/20 05:29:45;;;;;;;15.80;7.95;;;;;;;19.75;100.00;97744.34;5066718;28;20563;-92
2022/07/20 05:32:10;;;;;;;18.45;7.75;;;;;;;19.50;100.00;97752.94;5060835;28;20024;-91
2022/07/20 05:34:36;;;;;;;16.20;8.05;;;;;;;19.36;100.00;97759.06;5067702;28;20043;-92
2022/07/20 05:37:02;;;;;;;15.38;7.88;;;;;;;19.31;100.00;97771.75;5057929;28;22523;-92
2022/07/20 05:39:27;;;;;;;14.95;7.57;;;;;;;18.99;100.00;97775.34;5065720;28;20029;-93
2022/07/20 05:41:54;;;;;;;18.50;7.88;;;;;;;19.04;100.00;97796.19;5070790;28;20040;-93
2022/07/20 05:44:19;;;;;;;17.73;8.50;;;;;;;18.90;100.00;97792.59;5062333;28;22131;-93
2022/07/20 05:46:45;;;;;;;19.17;8.00;;;;;;;19.11;100.00;97792.28;5063391;28;20037;-94
2022/07/20 05:49:10;;;;;;;17.83;8.23;;;;;;;19.19;100.00;97808.53;5095049;28;20060;-92
2022/07/20 05:51:36;;;;;;;18.05;8.05;;;;;;;19.12;100.00;97801.06;5062316;28;20029;-93
2022/07/20 05:54:02;;;;;;;17.85;8.18;;;;;;;19.21;100.00;97814.56;5065258;28;20033;-94
2022/07/20 05:56:28;;;;;;;18.77;8.65;;;;;;;19.36;100.00;97812.81;5067856;28;20037;-94
2022/07/20 05:58:58;;;;;;;17.58;9.10;;;;;;;19.08;100.00;97810.94;5071019;28;20093;-93
2022/07/20 06:01:23;;;;;;;19.38;9.35;;;;;;;19.00;100.00;97795.56;5062177;28;20028;-92
2022/07/20 06:03:49;;;;;;;18.17;9.85;;;;;;;18.90;100.00;97807.59;5062471;28;20530;-95
2022/07/20 06:06:15;;;;;;;18.23;10.02;;;;;;;18.73;100.00;97821.75;5065481;28;20040;-93
2022/07/20 06:08:40;;;;;;;20.33;10.75;;;;;;;18.75;100.00;97819.88;5064387;28;20028;-93
2022/07/20 06:11:08;;;;;;;18.55;11.07;;;;;;;18.47;100.00;97832.00;5073091;28;20515;-93
2022/07/20 06:13:35;;;;;;;19.83;11.52;;;;;;;18.67;100.00;97841.44;5098107;27;20642;-94
2022/07/20 06:16:00;;;;;;;20.70;11.55;;;;;;;18.56;100.00;97847.31;5059275;28;20036;-95
2022/07/20 06:18:26;;;;;;;21.38;11.57;;;;;;;18.65;100.00;97853.03;5072310;28;20031;-94
2022/07/20 06:20:51;;;;;;;23.38;11.73;;;;;;;19.00;100.00;97856.31;5062559;28;20092;-92
2022/07/20 06:23:17;;;;;;;19.88;11.00;;;;;;;19.04;100.00;97855.22;5060134;28;20040;-93
2022/07/20 06:25:42;;;;;;;24.45;10.57;;;;;;;18.86;100.00;97848.28;5053758;28;20036;-94
2022/07/20 06:28:19;;;;;;;18.27;9.77;;;;;;;19.23;100.00;97856.75;5067543;28;20036;-95
2022/07/20 06:30:44;;;;;;;17.98;9.05;;;;;;;19.43;100.00;97850.31;5103237;27;20047;-92
2022/07/20 06:33:10;;;;;;;15.68;8.20;;;;;;;19.77;100.00;97848.25;5070284;28;20426;-94
2022/07/20 06:35:36;;;;;;;15.57;8.00;;;;;;;20.00;100.00;97849.53;5065537;28;20626;-94
2022/07/20 06:38:02;;;;;;;14.52;6.10;;;;;;;19.91;100.00;97847.44;5062358;28;20036;-93
2022/07/20 06:40:28;;;;;;;13.60;6.93;;;;;;;19.83;100.00;97849.72;5095512;28;20036;-96
2022/07/20 06:42:53;;;;;;;14.25;6.82;;;;;;;19.92;100.00;97846.50;5067863;28;20381;-94
2022/07/20 06:45:19;;;;;;;15.05;6.95;;;;;;;20.00;100.00;97852.19;5076597;28;20046;-92
2022/07/20 06:48:12;;;;;;;12.30;6.07;;;;;;;20.05;100.00;97851.88;5102975;27;20084;-95
2022/07/20 06:50:38;;;;;;;17.25;6.38;;;;;;;20.04;100.00;97850.16;5065506;28;20028;-95
2022/07/20 06:53:05;;;;;;;13.63;6.80;;;;;;;20.23;100.00;97865.75;5056809;28;20053;-95
2022/07/20 06:55:30;;;;;;;13.15;6.75;;;;;;;19.87;100.00;97867.09;5068145;28;20041;-96
2022/07/20 06:57:56;;;;;;;14.75;6.43;;;;;;;20.02;100.00;97870.59;5070426;28;20290;-95
2022/07/20 07:00:21;;;;;;;14.00;6.40;;;;;;;20.42;100.00;97879.53;5069002;28;20060;-91
2022/07/20 07:02:46;;;;;;;17.55;6.60;;;;;;;20.11;100.00;97881.47;5067390;28;20035;-93
2022/07/20 07:05:12;;;;;;;15.23;7.00;;;;;;;19.71;100.00;97886.53;5063177;28;20055;-94
2022/07/20 07:07:38;;;;;;;14.63;7.28;;;;;;;19.88;100.00;97879.41;5074783;28;20036;-94
2022/07/20 07:10:03;;;;;;;15.57;6.97;;;;;;;19.77;100.00;97885.31;5071093;28;20039;-93
2022/07/20 07:12:29;;;;;;;14.55;7.25;;;;;;;19.60;100.00;97886.31;5077064;28;20032;-94
2022/07/20 07:14:54;;;;;;;18.38;6.80;;;;;;;19.95;100.00;97884.19;5068200;28;20054;-95
2022/07/20 07:17:20;;;;;;;15.25;7.13;;;;;;;19.90;100.00;97883.66;5081282;28;20032;-94
2022/07/20 07:19:45;;;;;;;14.32;6.95;;;;;;;19.73;100.00;97892.56;5077253;28;20025;-94
2022/07/20 07:22:11;;;;;;;14.48;7.18;;;;;;;19.56;100.00;97900.66;5119915;27;20024;-94
2022/07/20 07:24:39;;;;;;;13.63;7.10;;;;;;;19.68;100.00;97912.31;5085768;28;20087;-94
2022/07/20 07:27:06;;;;;;;14.25;6.63;;;;;;;19.92;100.00;97904.72;5088287;28;20058;-94
2022/07/20 07:29:31;;;;;;;18.63;7.53;;;;;;;20.43;100.00;97904.22;5085664;28;20194;-94
2022/07/20 07:32:00;;;;;;;13.55;7.35;;;;;;;19.31;100.00;97925.91;5078608;28;20074;-93
2022/07/20 07:34:26;;;;;;;14.05;7.38;;;;;;;19.60;100.00;97933.94;5068460;28;20061;-93
2022/07/20 07:36:52;;;;;;;14.18;7.32;;;;;;;20.49;100.00;97930.34;5078439;28;20020;-93
2022/07/20 07:39:17;;;;;;;14.82;7.32;;;;;;;20.91;100.00;97933.03;5078572;28;20044;-95
2022/07/20 07:41:43;;;;;;;14.52;7.30;;;;;;;21.17;100.00;97936.63;5108767;27;20044;-93
2022/07/20 07:44:09;;;;;;;16.00;6.60;;;;;;;21.18;100.00;97937.47;5109168;27;20028;-93
2022/07/20 07:46:34;;;;;;;16.05;6.90;;;;;;;21.04;100.00;97935.72;5077616;28;20027;-93
2022/07/20 07:49:00;;;;;;;15.93;6.90;;;;;;;20.23;100.00;97942.53;5078857;28;20377;-92
2022/07/20 07:51:27;;;;;;;14.98;6.60;;;;;;;20.40;100.00;97941.50;5077168;28;20035;-92
2022/07/20 07:53:53;;;;;;;14.40;6.63;;;;;;;20.34;100.00;97932.13;5077855;28;20056;-92
2022/07/20 07:56:19;;;;;;;13.48;6.47;;;;;;;20.73;100.00;97943.00;5073918;28;20036;-90
2022/07/20 07:58:45;;;;;;;15.32;6.43;;;;;;;20.32;100.00;97946.41;5076785;28;20032;-92
2022/07/20 08:01:14;;;;;;;14.32;6.70;;;;;;;20.39;100.00;97951.25;5076666;28;20382;-93
2022/07/20 08:03:39;;;;;;;16.02;6.82;;;;;;;20.39;100.00;97953.03;5078964;28;20084;-91
2022/07/20 08:06:05;;;;;;;16.40;6.63;;;;;;;20.33;100.00;97956.91;5077183;28;20085;-91
2022/07/20 08:08:31;;;;;;;16.20;6.40;;;;;;;20.90;100.00;97948.06;5078312;28;20036;-91
2022/07/20 08:10:59;;;;;;;15.80;7.32;;;;;;;20.48;100.00;97951.63;5083412;28;20035;-90
2022/07/20 08:13:25;;;;;;;15.88;6.25;;;;;;;20.69;100.00;97947.63;5074827;28;20024;-91
2022/07/20 08:15:50;;;;;;;15.05;6.38;;;;;;;21.65;100.00;97942.28;5084456;28;20073;-90
2022/07/20 08:18:16;;;;;;;15.15;6.38;;;;;;;21.93;100.00;97940.41;5082108;28;20508;-90
2022/07/20 08:20:42;;;;;;;18.55;6.88;;;;;;;21.33;100.00;97941.75;5084048;28;20028;-93
2022/07/20 08:23:08;;;;;;;13.85;6.32;;;;;;;21.29;100.00;97943.78;5080360;28;20111;-93
2022/07/20 08:25:33;;;;;;;14.77;6.43;;;;;;;21.75;100.00;97933.72;5080955;28;20028;-93
2022/07/20 08:28:10;;;;;;;12.48;6.05;;;;;;;21.52;100.00;97941.44;5074591;28;20094;-93
2022/07/20 08:30:37;;;;;;;13.85;6.70;;;;;;;21.30;100.00;97947.28;5070166;28;20048;-92
2022/07/20 08:33:03;;;;;;;13.35;5.88;;;;;;;21.64;100.00;97950.34;5070211;28;20028;-94
2022/07/20 08:35:28;;;;;;;15.65;6.38;;;;;;;21.62;100.00;97950.44;5067329;28;20603;-92
2022/07/20 08:37:54;;;;;;;13.70;6.00;;;;;;;21.47;100.00;97960.28;5060018;28;20047;-95
2022/07/20 08:40:19;;;;;;;15.20;6.03;;;;;;;22.26;100.00;97972.72;5057065;28;20041;-92
2022/07/20 08:42:47;;;;;;;11.73;5.95;;;;;;;23.31;100.00;97981.22;5049892;28;20078;-93
2022/07/20 08:45:13;;;;;;;14.57;5.68;;;;;;;21.42;100.00;97986.25;5051778;28;20029;-95
2022/07/20 08:47:42;;;;;;;13.90;6.07;;;;;;;21.60;100.00;97988.66;5057764;28;20093;-95
2022/07/20 08:50:08;;;;;;;17.27;5.80;;;;;;;20.91;100.00;97993.97;5057359;28;20591;-93
2022/07/20 08:52:34;;;;;;;16.65;6.00;;;;;;;21.19;100.00;97998.34;5059035;28;20115;-92
2022/07/20 08:54:59;;;;;;;16.45;5.75;;;;;;;21.53;100.00;98008.59;5057810;28;20588;-96
2022/07/20 08:57:25;;;;;;;15.68;5.65;;;;;;;20.55;100.00;98019.16;5066115;28;20092;-95
2022/07/20 08:59:51;;;;;;;13.82;5.65;;;;;;;20.77;100.00;98011.59;5063349;28;20036;-91
2022/07/20 09:02:16;;;;;;;15.88;5.85;;;;;;;21.28;100.00;98007.50;5065758;28;20595;-90
2022/07/20 09:04:56;;;;;;;18.15;5.82;;;;;;;21.06;100.00;98016.84;5062564;28;20021;-92
2022/07/20 09:07:42;;;;;;;15.07;5.95;;;;;;;21.63;100.00;98026.47;5067851;28;20035;-94
2022/07/20 09:10:11;;;;;;;15.88;5.40;;;;;;;21.24;100.00;98021.91;5098609;28;20119;-93
2022/07/20 09:12:49;;;;;;;14.85;5.60;;;;;;;21.53;100.00;98019.19;5072672;28;20024;-94
2022/07/20 09:15:30;;;;;;;15.02;5.13;;;;;;;20.53;100.00;98045.75;5068433;28;20128;-94
2022/07/20 09:18:34;;;;;;;13.95;5.85;;;;;;;20.84;100.00;98035.91;5075872;28;20383;-96
2022/07/20 09:21:05;;;;;;;13.50;5.32;;;;;;;21.03;100.00;98042.69;4969544;28;20031;-95
2022/07/20 09:23:33;;;;;;;11.40;5.13;;;;;;;20.54;100.00;98044.81;4970711;28;20026;-93
2022/07/20 09:26:12;;;;;;;15.18;6.00;;;;;;;20.35;100.00;98055.66;4984117;28;20078;-95
2022/07/20 09:28:44;;;;;;;16.20;5.85;;;;;;;20.88;100.00;98063.09;4978450;28;20062;-95
2022/07/20 09:31:20;;;;;;;17.30;5.82;;;;;;;20.72;100.00;98068.47;4967060;28;20027;-96
2022/07/20 09:37:17;;;;;;;16.30;5.32;;;;;;;21.20;100.00;98074.31;4984377;28;20080;-96
2022/07/20 09:40:02;;;;;;;12.90;5.28;;;;;;;21.22;100.00;98071.56;4983401;28;20030;-96
2022/07/20 09:42:42;;;;;;;11.93;5.15;;;;;;;20.86;100.00;98065.81;4971477;28;20054;-94
2022/07/20 09:45:22;;;;;;;13.40;4.68;;;;;;;21.21;100.00;98065.41;4971867;28;20561;-96
2022/07/20 09:48:11;;;;;;;13.30;5.22;;;;;;;21.40;100.00;98069.53;4966816;28;20507;-94
2022/07/20 09:50:43;;;;;;;15.68;5.07;;;;;;;21.66;100.00;98070.53;4960666;28;20101;-93
2022/07/20 09:53:09;;;;;;;14.77;5.18;;;;;;;21.45;100.00;98067.44;4967008;28;20073;-94
2022/07/20 09:55:42;;;;;;;12.93;5.15;;;;;;;21.86;100.00;98068.34;5045642;28;20123;-95
2022/07/20 09:58:08;;;;;;;;;;;;;;;22.11;100.00;98073.72;5067001;28;20060;-93
2022/07/20 10:00:36;;;;;;;13.40;4.80;;;;;;;22.50;100.00;98064.03;5098938;27;19958;-94
2022/07/20 10:03:04;;;;;;;15.65;5.40;;;;;;;22.49;100.00;98067.63;5061880;28;20036;-95
2022/07/20 10:05:36;;;;;;;12.15;4.97;;;;;;;22.50;100.00;98073.78;5056841;28;20478;-91
2022/07/20 10:08:03;;;;;;;;;;;;;;;22.57;100.00;98084.84;5093761;27;20081;-95
2022/07/20 10:10:29;;;;;;;13.43;5.13;;;;;;;22.13;100.00;98094.88;5065848;28;20104;-93
2022/07/20 10:12:56;;;;;;;12.35;4.75;;;;;;;22.39;100.00;98092.28;5057893;28;20211;-93
2022/07/20 10:15:32;;;;;;;11.82;4.80;;;;;;;22.54;100.00;98093.03;5059576;28;20060;-91
2022/07/20 10:18:01;;;;;;;11.57;5.03;;;;;;;22.94;100.00;98106.22;5085934;28;20468;-95
2022/07/20 10:20:34;;;;;;;11.57;4.28;;;;;;;23.48;100.00;98107.72;5066698;28;20099;-92
2022/07/20 10:23:16;;;;;;;12.43;5.05;;;;;;;23.05;100.00;98122.28;5082788;28;20020;-92
2022/07/20 10:25:43;;;;;;;13.25;4.40;;;;;;;23.78;100.00;98128.59;5065888;28;20031;-91
2022/07/20 10:28:32;;;;;;;13.00;4.75;;;;;;;23.43;100.00;98128.50;5064662;28;20059;-92
2022/07/20 10:31:16;;;;;;;12.32;4.65;;;;;;;23.46;100.00;98117.63;5065900;28;20040;-92
2022/07/20 10:33:42;;;;;;;12.13;4.55;;;;;;;23.48;100.00;98113.91;5083269;28;20033;-91
2022/07/20 10:38:57;;;;;;;9.85;4.57;;;;;;;23.34;100.00;98116.72;5079093;28;20039;-91
2022/07/20 10:41:31;;;;;;;11.73;4.65;;;;;;;24.47;100.00;98121.78;5067641;28;20028;-91
2022/07/20 10:44:38;;;;;;;13.52;4.75;;;;;;;23.72;100.00;98134.38;5067826;28;20058;-93
2022/07/20 10:47:43;;;;;;;11.65;5.03;;;;;;;22.55;100.00;98121.31;5071099;28;20032;-92
2022/07/20 10:53:32;;;;;;;11.70;5.05;;;;;;;22.48;100.00;98115.56;5057840;28;20086;-93
2022/07/20 10:56:02;;;;;;;11.13;4.80;;;;;;;22.16;100.00;98122.06;5052997;28;20428;-95
2022/07/20 10:58:34;;;;;;;11.63;4.95;;;;;;;22.52;100.00;98116.19;5058911;28;20037;-91
2022/07/20 11:01:04;;;;;;;10.23;4.50;;;;;;;22.73;100.00;98120.06;5065623;28;20032;-93
2022/07/20 11:03:39;;;;;;;12.90;5.15;;;;;;;23.04;100.00;98125.88;5062307;28;20021;-92
2022/07/20 11:06:16;;;;;;;13.45;4.72;;;;;;;23.51;100.00;98126.97;5058145;28;20029;-90
2022/07/20 11:08:48;;;;;;;11.52;4.68;;;;;;;22.80;100.00;98118.66;5063590;28;20036;-92
2022/07/20 11:11:22;;;;;;;13.40;4.53;;;;;;;22.38;100.00;98131.28;5086153;28;20036;-91
2022/07/20 11:13:49;;;;;;;11.85;4.43;;;;;;;22.38;100.00;98122.44;5078476;28;20033;-92
2022/07/20 11:19:40;;;;;;;14.32;4.80;;;;;;;22.11;100.00;98118.00;5057596;28;20047;-90
2022/07/20 11:22:09;;;;;;;11.30;5.03;;;;;;;21.87;100.00;98115.19;5053064;28;20032;-91
2022/07/20 11:24:34;;;;;;;13.00;4.75;;;;;;;21.82;100.00;98126.97;5063469;28;20037;-92
2022/07/20 11:27:22;;;;;;;13.05;4.55;;;;;;;21.50;100.00;98113.06;5062677;28;20033;-95
2022/07/20 11:29:51;;;;;;;12.43;4.50;;;;;;;21.68;100.00;98115.53;5045732;28;20036;-90
2022/07/20 11:32:17;;;;;;;11.45;4.30;;;;;;;22.37;100.00;98113.63;5026315;28;20069;-91
2022/07/20 11:34:51;;;;;;;13.52;4.70;;;;;;;22.22;100.00;98110.19;5019529;28;20032;-91
2022/07/20 11:37:18;;;;;;;14.23;4.45;;;;;;;22.50;100.00;98114.53;5012275;28;20034;-91